createdAt,value
2023-02-04T00:00:14.942Z,31.36
2023-02-04T00:00:51.352Z,31.50
2023-02-04T00:01:27.748Z,31.46
2023-02-04T00:02:04.239Z,31.47
2023-02-04T00:02:40.904Z,31.48
2023-02-04T00:03:17.279Z,31.60
2023-02-04T00:03:53.986Z,31.46
2023-02-04T00:04:30.007Z,31.48
2023-02-04T00:05:06.014Z,31.63
2023-02-04T00:05:41.595Z,31.56
2023-02-04T00:06:18.405Z,31.56
2023-02-04T00:06:54.450Z,31.52
2023-02-04T00:07:31.060Z,31.39
2023-02-04T00:08:07.667Z,31.54
2023-02-04T00:08:44.616Z,31.35
2023-02-04T00:09:20.976Z,31.49
2023-02-04T00:09:57.391Z,31.54
2023-02-04T00:10:33.527Z,31.48
2023-02-04T00:11:08.899Z,31.33
2023-02-04T00:11:44.638Z,31.47
2023-02-04T00:12:20.995Z,31.48
2023-02-04T00:12:57.306Z,31.40
2023-02-04T00:13:34.106Z,31.63
2023-02-04T00:14:10.635Z,31.65
2023-02-04T00:14:46.978Z,31.55
2023-02-04T00:15:23.324Z,31.55
2023-02-04T00:15:59.793Z,31.49
2023-02-04T00:16:35.252Z,31.58
2023-02-04T00:17:11.927Z,31.58
2023-02-04T00:17:48.378Z,31.41
2023-02-04T00:18:25.131Z,31.67
2023-02-04T00:19:01.616Z,31.53
2023-02-04T00:19:38.014Z,31.30
2023-02-04T00:20:14.892Z,31.49
2023-02-04T00:20:51.238Z,31.47
2023-02-04T00:21:27.275Z,31.40
2023-02-04T00:22:03.295Z,31.38
2023-02-04T00:22:39.760Z,31.44
2023-02-04T00:23:16.177Z,31.57
2023-02-04T00:23:52.444Z,31.37
2023-02-04T00:24:28.778Z,31.50
2023-02-04T00:25:05.430Z,31.48
2023-02-04T00:25:42.149Z,31.43
2023-02-04T00:26:19.229Z,31.48
2023-02-04T00:26:55.397Z,31.47
2023-02-04T00:27:30.828Z,31.41
2023-02-04T00:28:07.869Z,31.44
2023-02-04T00:28:44.338Z,31.45
2023-02-04T00:29:20.938Z,31.38
2023-02-04T00:29:57.364Z,31.37
2023-02-04T00:30:34.092Z,31.48
2023-02-04T00:31:10.133Z,31.38
2023-02-04T00:31:46.540Z,31.36
2023-02-04T00:32:23.032Z,31.44
2023-02-04T00:32:58.443Z,31.43
2023-02-04T00:33:35.252Z,31.49
2023-02-04T00:34:11.471Z,31.41
2023-02-04T00:34:47.920Z,31.45
2023-02-04T00:35:24.611Z,31.45
2023-02-04T00:36:00.998Z,31.49
2023-02-04T00:36:37.668Z,31.45
2023-02-04T00:37:14.350Z,31.47
2023-02-04T00:37:50.121Z,31.41
2023-02-04T00:38:25.776Z,31.32
2023-02-04T00:39:01.731Z,31.41
2023-02-04T00:39:38.732Z,31.42
2023-02-04T00:40:15.084Z,31.37
2023-02-04T00:40:51.667Z,31.38
2023-02-04T00:41:27.752Z,31.47
2023-02-04T00:42:05.168Z,31.31
2023-02-04T00:42:41.680Z,31.46
2023-02-04T00:43:17.238Z,31.48
2023-02-04T00:43:52.515Z,31.38
2023-02-04T00:44:29.307Z,31.49
2023-02-04T00:45:06.265Z,31.40
2023-02-04T00:45:42.974Z,31.42
2023-02-04T00:46:18.648Z,31.37
2023-02-04T00:46:54.076Z,31.35
2023-02-04T00:47:30.640Z,31.42
2023-02-04T00:48:06.903Z,31.41
2023-02-04T00:48:43.744Z,31.28
2023-02-04T00:49:20.886Z,31.49
2023-02-04T00:49:56.773Z,31.48
2023-02-04T00:50:33.434Z,31.46
2023-02-04T00:51:09.334Z,31.42
2023-02-04T00:51:45.108Z,31.24
2023-02-04T00:52:21.489Z,31.37
2023-02-04T00:52:58.180Z,31.27
2023-02-04T00:53:34.600Z,31.28
2023-02-04T00:54:11.213Z,31.19
2023-02-04T00:54:47.754Z,31.33
2023-02-04T00:55:24.140Z,31.46
2023-02-04T00:56:00.567Z,31.34
2023-02-04T00:56:36.985Z,31.23
2023-02-04T00:57:12.697Z,31.32
2023-02-04T00:57:48.516Z,31.39
2023-02-04T00:58:24.931Z,31.47
2023-02-04T00:59:01.285Z,31.42
2023-02-04T00:59:37.417Z,31.42
2023-02-04T01:00:13.896Z,31.35
2023-02-04T01:00:50.630Z,31.44
2023-02-04T01:01:26.863Z,31.36
2023-02-04T01:02:03.031Z,31.56
2023-02-04T01:02:38.505Z,31.48
2023-02-04T01:03:14.974Z,31.44
2023-02-04T01:03:51.412Z,31.43
2023-02-04T01:04:28.063Z,31.36
2023-02-04T01:05:04.325Z,31.26
2023-02-04T01:05:41.109Z,31.24
2023-02-04T01:06:17.360Z,31.43
2023-02-04T01:06:53.937Z,31.35
2023-02-04T01:07:29.597Z,31.37
2023-02-04T01:08:05.098Z,31.34
2023-02-04T01:08:41.757Z,31.34
2023-02-04T01:09:17.848Z,31.37
2023-02-04T01:09:54.467Z,31.42
2023-02-04T01:10:30.751Z,31.35
2023-02-04T01:11:06.660Z,31.43
2023-02-04T01:11:43.807Z,31.29
2023-02-04T01:12:20.327Z,31.40
2023-02-04T01:12:56.912Z,31.38
2023-02-04T01:13:32.612Z,31.32
2023-02-04T01:14:09.478Z,31.39
2023-02-04T01:14:45.833Z,31.34
2023-02-04T01:15:21.902Z,31.31
2023-02-04T01:15:58.552Z,31.37
2023-02-04T01:16:34.300Z,31.32
2023-02-04T01:17:10.852Z,31.40
2023-02-04T01:17:47.375Z,31.33
2023-02-04T01:18:23.365Z,31.40
2023-02-04T01:18:59.392Z,31.41
2023-02-04T01:19:35.984Z,31.33
2023-02-04T01:20:12.044Z,31.26
2023-02-04T01:20:48.152Z,31.27
2023-02-04T01:21:25.078Z,31.38
2023-02-04T01:22:01.583Z,31.29
2023-02-04T01:22:37.785Z,31.35
2023-02-04T01:23:13.992Z,31.40
2023-02-04T01:23:50.075Z,31.31
2023-02-04T01:24:25.525Z,31.24
2023-02-04T01:25:01.404Z,31.24
2023-02-04T01:25:37.159Z,31.32
2023-02-04T01:26:13.695Z,31.38
2023-02-04T01:26:50.434Z,31.25
2023-02-04T01:27:26.646Z,31.25
2023-02-04T01:28:03.163Z,31.29
2023-02-04T01:28:39.600Z,31.26
2023-02-04T01:29:16.094Z,31.30
2023-02-04T01:29:52.372Z,31.21
2023-02-04T01:30:28.585Z,31.33
2023-02-04T01:31:04.465Z,31.25
2023-02-04T01:31:40.821Z,31.13
2023-02-04T01:32:17.164Z,31.14
2023-02-04T01:32:53.882Z,31.42
2023-02-04T01:33:30.623Z,31.31
2023-02-04T01:34:07.029Z,31.36
2023-02-04T01:34:43.353Z,31.37
2023-02-04T01:35:19.401Z,31.25
2023-02-04T01:35:55.191Z,31.24
2023-02-04T01:36:31.460Z,31.08
2023-02-04T01:37:07.717Z,31.33
2023-02-04T01:37:44.327Z,31.39
2023-02-04T01:38:20.581Z,31.31
2023-02-04T01:38:56.997Z,31.41
2023-02-04T01:39:33.353Z,31.18
2023-02-04T01:40:09.521Z,31.32
2023-02-04T01:40:45.589Z,31.31
2023-02-04T01:41:22.556Z,31.25
2023-02-04T01:41:58.711Z,31.24
2023-02-04T01:42:35.203Z,31.23
2023-02-04T01:43:11.617Z,31.21
2023-02-04T01:43:47.765Z,31.31
2023-02-04T01:44:23.674Z,31.34
2023-02-04T01:45:00.357Z,31.35
2023-02-04T01:45:36.266Z,31.27
2023-02-04T01:46:11.603Z,31.28
2023-02-04T01:46:48.207Z,31.09
2023-02-04T01:47:24.595Z,31.08
2023-02-04T01:48:00.623Z,31.23
2023-02-04T01:48:37.439Z,31.18
2023-02-04T01:49:13.585Z,31.33
2023-02-04T01:49:49.566Z,31.32
2023-02-04T01:50:25.691Z,31.29
2023-02-04T01:51:01.382Z,31.16
2023-02-04T01:51:37.589Z,31.23
2023-02-04T01:52:13.557Z,31.35
2023-02-04T01:52:50.094Z,31.26
2023-02-04T01:53:26.835Z,31.10
2023-02-04T01:54:03.056Z,31.24
2023-02-04T01:54:38.856Z,31.41
2023-02-04T01:55:14.904Z,31.16
2023-02-04T01:55:50.669Z,31.26
2023-02-04T01:56:27.202Z,31.09
2023-02-04T01:57:03.686Z,31.14
2023-02-04T01:57:39.603Z,31.31
2023-02-04T01:58:15.744Z,31.34
2023-02-04T01:58:52.434Z,31.16
2023-02-04T01:59:29.194Z,31.32
2023-02-04T02:00:06.473Z,31.21
2023-02-04T02:00:42.405Z,31.20
2023-02-04T02:01:17.877Z,31.32
2023-02-04T02:01:54.360Z,31.14
2023-02-04T02:02:30.816Z,31.36
2023-02-04T02:03:07.687Z,31.18
2023-02-04T02:03:44.140Z,31.12
2023-02-04T02:04:20.797Z,31.16
2023-02-04T02:04:57.017Z,31.20
2023-02-04T02:05:32.538Z,31.19
2023-02-04T02:06:08.648Z,31.25
2023-02-04T02:06:45.055Z,31.27
2023-02-04T02:07:21.328Z,31.09
2023-02-04T02:07:58.090Z,31.09
2023-02-04T02:08:34.447Z,31.39
2023-02-04T02:09:10.745Z,31.42
2023-02-04T02:09:46.796Z,31.31
2023-02-04T02:10:23.711Z,31.17
2023-02-04T02:11:00.349Z,31.27
2023-02-04T02:11:35.580Z,31.15
2023-02-04T02:12:12.028Z,31.29
2023-02-04T02:12:48.258Z,31.22
2023-02-04T02:13:24.504Z,31.10
2023-02-04T02:14:01.379Z,31.11
2023-02-04T02:14:37.895Z,31.13
2023-02-04T02:15:13.805Z,31.04
2023-02-04T02:15:49.932Z,31.24
2023-02-04T02:16:25.799Z,31.27
2023-02-04T02:17:01.903Z,31.29
2023-02-04T02:17:38.608Z,31.18
2023-02-04T02:18:15.662Z,31.25
2023-02-04T02:18:52.101Z,31.23
2023-02-04T02:19:28.801Z,31.26
2023-02-04T02:20:05.834Z,31.27
2023-02-04T02:20:42.853Z,31.25
2023-02-04T02:21:18.790Z,31.22
2023-02-04T02:21:54.876Z,31.26
2023-02-04T02:22:31.273Z,31.16
2023-02-04T02:23:08.540Z,31.15
2023-02-04T02:23:44.600Z,31.04
2023-02-04T02:24:21.330Z,31.25
2023-02-04T02:24:58.283Z,31.17
2023-02-04T02:25:34.515Z,31.04
2023-02-04T02:26:10.980Z,31.21
2023-02-04T02:26:47.052Z,31.30
2023-02-04T02:27:22.813Z,31.31
2023-02-04T02:27:58.738Z,31.23
2023-02-04T02:28:34.831Z,31.33
2023-02-04T02:29:11.051Z,31.42
2023-02-04T02:29:47.166Z,31.38
2023-02-04T02:30:23.814Z,31.20
2023-02-04T02:31:00.234Z,31.28
2023-02-04T02:31:36.919Z,31.12
2023-02-04T02:32:13.042Z,31.28
2023-02-04T02:32:48.936Z,31.26
2023-02-04T02:33:25.622Z,31.05
2023-02-04T02:34:01.961Z,31.21
2023-02-04T02:34:37.849Z,31.25
2023-02-04T02:35:14.979Z,31.27
2023-02-04T02:35:51.517Z,31.31
2023-02-04T02:36:27.857Z,31.11
2023-02-04T02:37:04.714Z,31.12
2023-02-04T02:37:41.006Z,31.06
2023-02-04T02:38:17.153Z,31.19
2023-02-04T02:38:53.020Z,31.17
2023-02-04T02:39:29.876Z,31.15
2023-02-04T02:40:07.641Z,31.09
2023-02-04T02:40:45.146Z,31.13
2023-02-04T02:41:22.020Z,31.19
2023-02-04T02:41:58.980Z,31.35
2023-02-04T02:42:35.332Z,31.16
2023-02-04T02:43:10.881Z,31.15
2023-02-04T02:43:46.861Z,31.18
2023-02-04T02:44:23.260Z,31.25
2023-02-04T02:45:00.370Z,31.23
2023-02-04T02:45:43.577Z,31.26
2023-02-04T02:46:19.444Z,31.23
2023-02-04T02:46:55.004Z,31.22
2023-02-04T02:47:31.865Z,31.13
2023-02-04T02:48:08.180Z,31.09
2023-02-04T02:48:44.607Z,31.11
2023-02-04T02:49:20.909Z,31.08
2023-02-04T02:49:57.186Z,31.04
2023-02-04T02:50:33.450Z,30.99
2023-02-04T02:51:09.696Z,30.98
2023-02-04T02:51:45.811Z,31.11
2023-02-04T02:52:21.955Z,31.08
2023-02-04T02:52:58.416Z,31.03
2023-02-04T02:53:34.892Z,31.04
2023-02-04T02:54:11.511Z,31.23
2023-02-04T02:54:48.109Z,31.12
2023-02-04T02:55:23.947Z,31.16
2023-02-04T02:56:00.334Z,31.36
2023-02-04T02:56:36.028Z,31.13
2023-02-04T02:57:12.012Z,31.22
2023-02-04T02:57:48.907Z,31.13
2023-02-04T02:58:25.178Z,31.14
2023-02-04T02:59:01.972Z,31.24
2023-02-04T02:59:38.153Z,31.18
2023-02-04T03:00:14.961Z,31.22
2023-02-04T03:00:51.619Z,31.19
2023-02-04T03:01:26.887Z,31.19
2023-02-04T03:02:02.617Z,31.28
2023-02-04T03:02:39.400Z,31.07
2023-02-04T03:03:15.882Z,31.12
2023-02-04T03:03:52.320Z,31.14
2023-02-04T03:04:28.758Z,31.33
2023-02-04T03:05:05.682Z,31.21
2023-02-04T03:05:42.819Z,31.09
2023-02-04T03:06:18.948Z,31.23
2023-02-04T03:06:54.839Z,31.25
2023-02-04T03:07:30.298Z,31.19
2023-02-04T03:08:06.937Z,31.19
2023-02-04T03:08:44.217Z,31.10
2023-02-04T03:09:21.001Z,31.16
2023-02-04T03:09:57.998Z,31.15
2023-02-04T03:10:34.692Z,31.26
2023-02-04T03:11:11.745Z,31.31
2023-02-04T03:11:48.757Z,31.21
2023-02-04T03:12:24.514Z,31.36
2023-02-04T03:13:00.489Z,31.29
2023-02-04T03:13:36.820Z,31.27
2023-02-04T03:14:14.129Z,31.25
2023-02-04T03:14:50.479Z,31.18
2023-02-04T03:15:27.397Z,31.16
2023-02-04T03:16:03.867Z,30.98
2023-02-04T03:16:40.338Z,31.17
2023-02-04T03:17:16.714Z,31.04
2023-02-04T03:17:52.276Z,31.17
2023-02-04T03:18:28.219Z,31.27
2023-02-04T03:19:04.498Z,31.21
2023-02-04T03:19:41.571Z,31.13
2023-02-04T03:20:17.811Z,31.33
2023-02-04T03:20:54.772Z,31.18
2023-02-04T03:21:30.976Z,31.13
2023-02-04T03:22:07.414Z,31.15
2023-02-04T03:22:43.142Z,31.04
2023-02-04T03:23:19.396Z,31.09
2023-02-04T03:23:55.201Z,31.11
2023-02-04T03:24:31.485Z,31.00
2023-02-04T03:25:07.666Z,31.17
2023-02-04T03:25:44.246Z,31.07
2023-02-04T03:26:20.207Z,31.30
2023-02-04T03:26:56.491Z,31.08
2023-02-04T03:27:33.045Z,31.14
2023-02-04T03:28:09.925Z,31.04
2023-02-04T03:28:45.757Z,31.18
2023-02-04T03:29:21.768Z,31.16
2023-02-04T03:29:58.131Z,31.19
2023-02-04T03:30:36.505Z,31.04
2023-02-04T03:31:13.258Z,31.28
2023-02-04T03:31:48.980Z,31.17
2023-02-04T03:32:25.432Z,31.15
2023-02-04T03:33:02.200Z,31.21
2023-02-04T03:33:38.200Z,31.17
2023-02-04T03:34:14.031Z,31.33
2023-02-04T03:34:49.750Z,31.19
2023-02-04T03:35:26.510Z,31.18
2023-02-04T03:36:02.923Z,31.28
2023-02-04T03:36:39.397Z,31.08
2023-02-04T03:37:16.072Z,31.21
2023-02-04T03:37:52.226Z,31.06
2023-02-04T03:38:28.889Z,31.18
2023-02-04T03:39:05.592Z,31.21
2023-02-04T03:39:42.258Z,31.15
2023-02-04T03:40:17.691Z,31.27
2023-02-04T03:40:54.142Z,31.17
2023-02-04T03:41:30.763Z,31.15
2023-02-04T03:42:07.764Z,31.13
2023-02-04T03:42:45.061Z,31.15
2023-02-04T03:43:22.106Z,31.11
2023-02-04T03:43:58.309Z,31.01
2023-02-04T03:44:34.881Z,31.19
2023-02-04T03:45:10.591Z,31.14
2023-02-04T03:45:46.504Z,31.10
2023-02-04T03:46:22.576Z,31.05
2023-02-04T03:46:58.538Z,31.12
2023-02-04T03:47:34.632Z,31.32
2023-02-04T03:48:11.518Z,31.20
2023-02-04T03:48:47.665Z,31.13
2023-02-04T03:49:24.439Z,31.23
2023-02-04T03:50:00.523Z,31.14
2023-02-04T03:50:36.873Z,31.25
2023-02-04T03:51:12.938Z,31.07
2023-02-04T03:51:49.129Z,31.24
2023-02-04T03:52:24.640Z,31.13
2023-02-04T03:53:01.382Z,31.10
2023-02-04T03:53:37.577Z,31.24
2023-02-04T03:54:13.742Z,31.15
2023-02-04T03:54:49.982Z,30.99
2023-02-04T03:55:26.812Z,31.20
2023-02-04T03:56:03.399Z,31.18
2023-02-04T03:56:39.546Z,31.22
2023-02-04T03:57:15.970Z,31.29
2023-02-04T03:57:51.920Z,31.18
2023-02-04T03:58:28.475Z,31.13
2023-02-04T03:59:05.386Z,31.16
2023-02-04T03:59:41.694Z,31.21
2023-02-04T04:00:18.176Z,31.13
2023-02-04T04:00:54.930Z,31.11
2023-02-04T04:01:31.251Z,31.19
2023-02-04T04:02:07.205Z,31.21
2023-02-04T04:02:43.416Z,31.13
2023-02-04T04:03:19.190Z,31.12
2023-02-04T04:03:55.845Z,31.41
2023-02-04T04:04:32.330Z,31.17
2023-02-04T04:05:08.881Z,31.18
2023-02-04T04:05:45.203Z,31.29
2023-02-04T04:06:21.671Z,31.10
2023-02-04T04:06:57.558Z,31.18
2023-02-04T04:07:34.257Z,31.14
2023-02-04T04:08:09.903Z,31.17
2023-02-04T04:08:45.377Z,31.14
2023-02-04T04:09:22.041Z,31.08
2023-02-04T04:09:58.319Z,31.02
2023-02-04T04:10:34.875Z,31.06
2023-02-04T04:11:10.877Z,31.14
2023-02-04T04:11:47.129Z,31.15
2023-02-04T04:12:23.058Z,31.17
2023-02-04T04:12:59.420Z,31.23
2023-02-04T04:13:35.809Z,31.14
2023-02-04T04:14:11.378Z,31.06
2023-02-04T04:14:48.119Z,31.18
2023-02-04T04:15:24.388Z,31.21
2023-02-04T04:16:00.796Z,31.24
2023-02-04T04:16:37.745Z,31.27
2023-02-04T04:17:13.877Z,31.17
2023-02-04T04:17:49.771Z,31.24
2023-02-04T04:18:26.665Z,31.12
2023-02-04T04:19:03.619Z,31.17
2023-02-04T04:19:39.806Z,31.13
2023-02-04T04:20:15.912Z,31.09
2023-02-04T04:20:52.065Z,31.14
2023-02-04T04:21:28.633Z,31.08
2023-02-04T04:22:04.292Z,31.19
2023-02-04T04:22:40.036Z,31.07
2023-02-04T04:23:16.703Z,31.33
2023-02-04T04:23:53.117Z,31.10
2023-02-04T04:24:29.768Z,31.05
2023-02-04T04:25:06.420Z,31.11
2023-02-04T04:25:42.487Z,31.16
2023-02-04T04:26:19.047Z,31.09
2023-02-04T04:26:55.775Z,31.09
2023-02-04T04:27:31.876Z,31.07
2023-02-04T04:28:07.807Z,31.14
2023-02-04T04:28:44.435Z,31.25
2023-02-04T04:29:21.164Z,31.18
2023-02-04T04:29:57.631Z,31.12
2023-02-04T04:30:33.905Z,31.24
2023-02-04T04:31:10.650Z,31.05
2023-02-04T04:31:47.301Z,31.15
2023-02-04T04:32:23.278Z,31.29
2023-02-04T04:32:59.099Z,31.12
2023-02-04T04:33:35.640Z,31.18
2023-02-04T04:34:11.529Z,31.23
2023-02-04T04:34:47.949Z,31.14
2023-02-04T04:35:24.336Z,31.20
2023-02-04T04:36:00.826Z,31.17
2023-02-04T04:36:37.658Z,31.22
2023-02-04T04:37:14.447Z,31.12
2023-02-04T04:37:50.333Z,31.20
2023-02-04T04:38:25.937Z,31.00
2023-02-04T04:39:02.048Z,31.22
2023-02-04T04:39:38.846Z,31.28
2023-02-04T04:40:15.224Z,31.31
2023-02-04T04:40:51.803Z,31.24
2023-02-04T04:41:28.164Z,31.32
2023-02-04T04:42:05.201Z,31.14
2023-02-04T04:42:41.610Z,31.16
2023-02-04T04:43:17.346Z,31.26
2023-02-04T04:43:53.307Z,31.16
2023-02-04T04:44:29.612Z,31.16
2023-02-04T04:45:07.181Z,31.18
2023-02-04T04:45:43.626Z,31.09
2023-02-04T04:46:19.850Z,30.90
2023-02-04T04:46:56.424Z,30.99
2023-02-04T04:47:32.104Z,31.08
2023-02-04T04:48:08.430Z,31.13
2023-02-04T04:48:44.980Z,31.11
2023-02-04T04:49:21.980Z,31.08
2023-02-04T04:49:58.339Z,31.14
2023-02-04T04:50:34.901Z,31.21
2023-02-04T04:51:10.831Z,31.18
2023-02-04T04:51:47.378Z,31.08
2023-02-04T04:52:23.212Z,31.05
2023-02-04T04:52:59.284Z,31.16
2023-02-04T04:53:35.254Z,31.25
2023-02-04T04:54:11.393Z,31.22
2023-02-04T04:54:47.839Z,31.12
2023-02-04T04:55:24.400Z,31.25
2023-02-04T04:56:00.923Z,31.30
2023-02-04T04:56:37.138Z,31.27
2023-02-04T04:57:14.229Z,31.24
2023-02-04T04:57:49.997Z,31.05
2023-02-04T04:58:26.231Z,31.10
2023-02-04T04:59:02.311Z,31.13
2023-02-04T04:59:38.495Z,31.03
2023-02-04T05:00:14.467Z,31.16
2023-02-04T05:00:50.990Z,31.11
2023-02-04T05:01:27.358Z,31.30
2023-02-04T05:02:04.140Z,31.20
2023-02-04T05:02:41.477Z,31.16
2023-02-04T05:03:17.801Z,31.15
2023-02-04T05:03:54.124Z,31.20
2023-02-04T05:04:29.636Z,31.11
2023-02-04T05:05:06.031Z,31.11
2023-02-04T05:05:42.761Z,31.07
2023-02-04T05:06:19.079Z,31.05
2023-02-04T05:06:55.773Z,31.13
2023-02-04T05:07:31.975Z,31.15
2023-02-04T05:08:08.568Z,31.18
2023-02-04T05:08:44.754Z,31.09
2023-02-04T05:09:21.172Z,31.23
2023-02-04T05:09:56.661Z,31.15
2023-02-04T05:10:33.625Z,31.17
2023-02-04T05:11:10.446Z,31.19
2023-02-04T05:11:46.369Z,31.21
2023-02-04T05:12:23.115Z,31.11
2023-02-04T05:12:59.254Z,31.09
2023-02-04T05:13:35.680Z,31.00
2023-02-04T05:14:11.426Z,31.03
2023-02-04T05:14:47.812Z,31.16
2023-02-04T05:15:23.513Z,31.15
2023-02-04T05:15:59.435Z,31.08
2023-02-04T05:16:36.353Z,31.05
2023-02-04T05:17:12.475Z,31.26
2023-02-04T05:17:48.468Z,31.13
2023-02-04T05:18:25.237Z,31.19
2023-02-04T05:19:01.664Z,31.10
2023-02-04T05:19:38.008Z,31.02
2023-02-04T05:20:13.828Z,31.18
2023-02-04T05:20:49.745Z,31.21
2023-02-04T05:21:26.128Z,31.01
2023-02-04T05:22:02.907Z,31.14
2023-02-04T05:22:39.495Z,31.17
2023-02-04T05:23:16.340Z,31.14
2023-02-04T05:23:53.332Z,31.16
2023-02-04T05:24:30.313Z,31.27
2023-02-04T05:25:06.783Z,31.14
2023-02-04T05:25:43.528Z,31.10
2023-02-04T05:26:29.546Z,31.19
2023-02-04T05:27:05.668Z,31.21
2023-02-04T05:27:42.481Z,31.15
2023-02-04T05:28:19.187Z,31.18
2023-02-04T05:28:55.568Z,31.07
2023-02-04T05:29:31.921Z,31.09
2023-02-04T05:30:08.774Z,31.28
2023-02-04T05:30:44.528Z,31.18
2023-02-04T05:31:20.284Z,31.16
2023-02-04T05:31:56.211Z,31.24
2023-02-04T05:32:32.994Z,31.15
2023-02-04T05:33:09.199Z,31.15
2023-02-04T05:33:46.413Z,31.27
2023-02-04T05:34:23.393Z,31.16
2023-02-04T05:35:00.210Z,31.24
2023-02-04T05:35:35.968Z,31.11
2023-02-04T05:36:12.041Z,31.22
2023-02-04T05:36:47.689Z,31.17
2023-02-04T05:37:23.617Z,31.12
2023-02-04T05:38:00.307Z,31.02
2023-02-04T05:38:36.693Z,31.11
2023-02-04T05:39:13.203Z,31.30
2023-02-04T05:39:49.719Z,31.15
2023-02-04T05:40:26.604Z,31.13
2023-02-04T05:41:02.533Z,31.12
2023-02-04T05:41:39.082Z,31.10
2023-02-04T05:42:14.771Z,31.17
2023-02-04T05:42:52.312Z,31.18
2023-02-04T05:43:28.265Z,31.04
2023-02-04T05:44:04.668Z,31.18
2023-02-04T05:44:40.983Z,31.02
2023-02-04T05:45:17.087Z,31.18
2023-02-04T05:45:53.646Z,31.29
2023-02-04T05:46:30.212Z,31.10
2023-02-04T05:47:06.736Z,31.16
2023-02-04T05:47:43.071Z,31.16
2023-02-04T05:48:19.351Z,31.08
2023-02-04T05:48:55.421Z,31.21
2023-02-04T05:49:31.356Z,31.03
2023-02-04T05:50:07.890Z,31.15
2023-02-04T05:50:44.762Z,31.25
2023-02-04T05:51:21.628Z,31.10
2023-02-04T05:51:58.302Z,31.24
2023-02-04T05:52:33.843Z,31.12
2023-02-04T05:53:09.662Z,31.07
2023-02-04T05:53:45.894Z,31.14
2023-02-04T05:54:22.398Z,31.09
2023-02-04T05:54:58.907Z,31.13
2023-02-04T05:55:34.824Z,31.25
2023-02-04T05:56:11.011Z,31.25
2023-02-04T05:56:46.770Z,31.20
2023-02-04T05:57:23.429Z,31.32
2023-02-04T05:57:59.158Z,31.16
2023-02-04T05:58:35.848Z,31.16
2023-02-04T05:59:12.361Z,31.28
2023-02-04T05:59:48.839Z,31.18
2023-02-04T06:00:25.833Z,31.11
2023-02-04T06:01:02.132Z,31.10
2023-02-04T06:01:37.865Z,31.25
2023-02-04T06:02:13.825Z,31.27
2023-02-04T06:02:50.704Z,31.22
2023-02-04T06:03:27.199Z,31.17
2023-02-04T06:04:03.773Z,31.20
2023-02-04T06:04:40.302Z,31.16
2023-02-04T06:05:16.901Z,31.15
2023-02-04T06:05:53.255Z,31.20
2023-02-04T06:06:29.034Z,31.19
2023-02-04T06:07:04.805Z,31.24
2023-02-04T06:07:41.240Z,31.07
2023-02-04T06:08:17.433Z,31.11
2023-02-04T06:08:54.132Z,31.17
2023-02-04T06:09:30.800Z,31.11
2023-02-04T06:10:07.121Z,31.02
2023-02-04T06:10:43.761Z,31.06
2023-02-04T06:11:19.919Z,31.19
2023-02-04T06:11:55.924Z,31.15
2023-02-04T06:12:31.751Z,31.19
2023-02-04T06:13:08.334Z,31.25
2023-02-04T06:13:44.931Z,31.18
2023-02-04T06:14:21.528Z,31.19
2023-02-04T06:14:57.682Z,31.23
2023-02-04T06:15:33.794Z,31.07
2023-02-04T06:16:09.757Z,31.15
2023-02-04T06:16:46.249Z,31.18
2023-02-04T06:17:22.937Z,31.07
2023-02-04T06:17:58.510Z,31.12
2023-02-04T06:18:34.912Z,31.16
2023-02-04T06:19:11.083Z,31.16
2023-02-04T06:19:47.867Z,31.15
2023-02-04T06:20:24.206Z,31.17
2023-02-04T06:21:00.255Z,31.18
2023-02-04T06:21:36.872Z,31.04
2023-02-04T06:22:13.111Z,31.11
2023-02-04T06:22:49.225Z,31.20
2023-02-04T06:23:25.351Z,31.18
2023-02-04T06:24:01.153Z,31.28
2023-02-04T06:24:37.351Z,31.22
2023-02-04T06:25:13.334Z,31.28
2023-02-04T06:25:49.442Z,31.35
2023-02-04T06:26:26.016Z,31.07
2023-02-04T06:27:02.494Z,31.06
2023-02-04T06:27:38.937Z,31.33
2023-02-04T06:28:15.155Z,31.34
2023-02-04T06:28:50.677Z,31.17
2023-02-04T06:29:26.926Z,31.09
2023-02-04T06:30:05.490Z,31.16
2023-02-04T06:30:42.550Z,31.11
2023-02-04T06:31:18.909Z,31.27
2023-02-04T06:31:55.155Z,31.20
2023-02-04T06:32:32.069Z,30.98
2023-02-04T06:33:08.051Z,31.14
2023-02-04T06:33:44.561Z,31.11
2023-02-04T06:34:19.720Z,31.11
2023-02-04T06:34:55.168Z,31.04
2023-02-04T06:35:31.717Z,31.17
2023-02-04T06:36:08.409Z,31.19
2023-02-04T06:36:44.941Z,31.10
2023-02-04T06:37:22.974Z,31.16
2023-02-04T06:37:59.836Z,31.30
2023-02-04T06:38:36.104Z,31.25
2023-02-04T06:39:12.632Z,31.11
2023-02-04T06:39:49.167Z,31.20
2023-02-04T06:40:25.086Z,31.15
2023-02-04T06:41:01.764Z,31.19
2023-02-04T06:41:37.654Z,31.19
2023-02-04T06:42:14.223Z,31.22
2023-02-04T06:42:50.895Z,31.20
2023-02-04T06:43:27.622Z,31.26
2023-02-04T06:44:04.028Z,31.22
2023-02-04T06:44:39.601Z,31.29
2023-02-04T06:45:15.309Z,31.21
2023-02-04T06:45:52.203Z,31.30
2023-02-04T06:46:28.977Z,31.19
2023-02-04T06:47:05.382Z,31.13
2023-02-04T06:47:41.757Z,31.17
2023-02-04T06:48:18.618Z,31.21
2023-02-04T06:48:54.873Z,31.28
2023-02-04T06:49:31.228Z,31.11
2023-02-04T06:50:07.687Z,31.12
2023-02-04T06:50:43.247Z,31.18
2023-02-04T06:51:19.740Z,31.20
2023-02-04T06:51:56.205Z,31.20
2023-02-04T06:52:32.139Z,31.10
2023-02-04T06:53:09.091Z,31.21
2023-02-04T06:53:45.567Z,31.18
2023-02-04T06:54:21.920Z,31.17
2023-02-04T06:54:58.816Z,31.27
2023-02-04T06:55:35.308Z,31.18
2023-02-04T06:56:11.275Z,31.09
2023-02-04T06:56:48.762Z,31.17
2023-02-04T06:57:25.624Z,31.24
2023-02-04T06:58:01.735Z,31.25
2023-02-04T06:58:38.053Z,31.20
2023-02-04T06:59:14.924Z,31.15
2023-02-04T06:59:51.469Z,31.27
2023-02-04T07:00:27.997Z,31.31
2023-02-04T07:01:04.332Z,31.10
2023-02-04T07:01:40.410Z,31.07
2023-02-04T07:02:17.479Z,31.26
2023-02-04T07:02:54.058Z,31.23
2023-02-04T07:03:30.053Z,31.29
2023-02-04T07:04:06.916Z,31.31
2023-02-04T07:04:43.501Z,31.17
2023-02-04T07:05:19.131Z,31.18
2023-02-04T07:05:55.901Z,31.22
2023-02-04T07:06:32.417Z,31.24
2023-02-04T07:07:09.324Z,31.28
2023-02-04T07:07:45.923Z,31.19
2023-02-04T07:08:22.750Z,31.25
2023-02-04T07:08:59.446Z,31.16
2023-02-04T07:09:35.951Z,31.28
2023-02-04T07:10:12.051Z,31.14
2023-02-04T07:10:47.971Z,31.29
2023-02-04T07:11:23.837Z,31.18
2023-02-04T07:11:59.997Z,31.10
2023-02-04T07:12:36.354Z,31.25
2023-02-04T07:13:12.676Z,31.15
2023-02-04T07:13:49.219Z,31.09
2023-02-04T07:14:26.188Z,31.22
2023-02-04T07:15:05.595Z,31.26
2023-02-04T07:15:41.902Z,31.28
2023-02-04T07:16:17.818Z,31.31
2023-02-04T07:16:54.342Z,31.21
2023-02-04T07:17:30.822Z,31.24
2023-02-04T07:18:07.827Z,31.27
2023-02-04T07:18:44.653Z,31.30
2023-02-04T07:19:21.571Z,31.09
2023-02-04T07:19:58.145Z,31.15
2023-02-04T07:20:34.975Z,31.15
2023-02-04T07:21:11.029Z,31.24
2023-02-04T07:21:46.473Z,31.20
2023-02-04T07:22:23.015Z,31.18
2023-02-04T07:22:59.864Z,31.08
2023-02-04T07:23:36.515Z,31.23
2023-02-04T07:24:13.125Z,31.18
2023-02-04T07:24:49.257Z,31.16
2023-02-04T07:25:24.825Z,31.18
2023-02-04T07:26:01.497Z,31.15
2023-02-04T07:26:37.306Z,31.15
2023-02-04T07:27:13.854Z,31.14
2023-02-04T07:27:50.369Z,31.19
2023-02-04T07:28:26.824Z,31.15
2023-02-04T07:29:03.154Z,31.12
2023-02-04T07:29:39.632Z,31.14
2023-02-04T07:30:15.954Z,31.24
2023-02-04T07:30:52.501Z,31.15
2023-02-04T07:31:29.347Z,31.27
2023-02-04T07:32:05.331Z,31.25
2023-02-04T07:32:41.041Z,31.28
2023-02-04T07:33:16.640Z,31.22
2023-02-04T07:33:53.632Z,31.27
2023-02-04T07:34:30.167Z,31.19
2023-02-04T07:35:07.006Z,31.22
2023-02-04T07:35:43.594Z,31.37
2023-02-04T07:36:20.138Z,31.16
2023-02-04T07:36:56.552Z,31.25
2023-02-04T07:37:32.499Z,31.17
2023-02-04T07:38:07.969Z,31.08
2023-02-04T07:38:43.902Z,31.06
2023-02-04T07:39:20.302Z,31.13
2023-02-04T07:39:57.084Z,31.10
2023-02-04T07:40:33.823Z,31.23
2023-02-04T07:41:09.926Z,31.22
2023-02-04T07:41:46.199Z,31.25
2023-02-04T07:42:22.531Z,31.17
2023-02-04T07:42:58.084Z,31.14
2023-02-04T07:43:33.516Z,31.27
2023-02-04T07:44:10.227Z,31.25
2023-02-04T07:44:46.247Z,31.19
2023-02-04T07:45:22.898Z,31.27
2023-02-04T07:45:59.173Z,31.15
2023-02-04T07:46:35.640Z,31.34
2023-02-04T07:47:11.869Z,31.15
2023-02-04T07:47:48.835Z,31.33
2023-02-04T07:48:25.153Z,31.37